sensor_id;sensor_type;location;lat;lon;timestamp;temperature;humidity
53954;HTU21D;39862;54.856;26.318;2022-10-13T02:49:08;4.9;68.9
53954;HTU21D;39862;54.856;26.318;2022-10-13T02:53:56;4.6;72.8
53954;HTU21D;39862;54.856;26.318;2022-10-13T02:58:56;4.6;72.8
53954;HTU21D;39862;54.856;26.318;2022-10-13T03:04:18;4.7;72.7
53954;HTU21D;39862;54.856;26.318;2022-10-13T03:09:18;4.7;72.7
53954;HTU21D;39862;54.856;26.318;2022-10-13T03:14:20;4.7;72.7
53954;HTU21D;39862;54.856;26.318;2022-10-13T03:18:56;4.7;72.6
53954;HTU21D;39862;54.856;26.318;2022-10-13T03:23:46;4.8;72.5
53954;HTU21D;39862;54.856;26.318;2022-10-13T03:29:10;4.8;72.4
53954;HTU21D;39862;54.856;26.318;2022-10-13T03:34:20;4.8;72.4
53954;HTU21D;39862;54.856;26.318;2022-10-13T03:38:44;4.8;72.4
53954;HTU21D;39862;54.856;26.318;2022-10-13T04:03:36;4.8;72.4
53954;HTU21D;39862;54.856;26.318;2022-10-13T04:09:06;4.8;72.4
53954;HTU21D;39862;54.856;26.318;2022-10-13T04:14:18;4.8;72.4
53954;HTU21D;39862;54.856;26.318;2022-10-13T04:18:57;4.8;72.4
53954;HTU21D;39862;54.856;26.318;2022-10-13T04:24:20;4.8;72.4
53954;HTU21D;39862;54.856;26.318;2022-10-13T04:29:18;4.8;72.4
53954;HTU21D;39862;54.856;26.318;2022-10-13T04:33:48;4.8;72.4
53954;HTU21D;39862;54.856;26.318;2022-10-13T04:38:56;4.8;72.4
53954;HTU21D;39862;54.856;26.318;2022-10-13T04:43:46;4.8;72.4
53954;HTU21D;39862;54.856;26.318;2022-10-13T04:49:20;4.8;72.4
53954;HTU21D;39862;54.856;26.318;2022-10-13T04:54:08;4.8;72.4
53954;HTU21D;39862;54.856;26.318;2022-10-13T04:59:10;4.8;72.4
53954;HTU21D;39862;54.856;26.318;2022-10-13T05:04:10;4.8;72.4
53954;HTU21D;39862;54.856;26.318;2022-10-13T05:09:02;4.8;72.4
53954;HTU21D;39862;54.856;26.318;2022-10-13T05:13:54;4.8;72.4
53954;HTU21D;39862;54.856;26.318;2022-10-13T05:19:08;4.8;72.4
53954;HTU21D;39862;54.856;26.318;2022-10-13T05:23:36;4.8;72.4
53954;HTU21D;39862;54.856;26.318;2022-10-13T05:28:36;4.8;72.4
53954;HTU21D;39862;54.856;26.318;2022-10-13T05:33:56;4.8;72.4
53954;HTU21D;39862;54.856;26.318;2022-10-13T05:39:08;4.8;72.4
53954;HTU21D;39862;54.856;26.318;2022-10-13T05:44:08;4.8;72.4
53954;HTU21D;39862;54.856;26.318;2022-10-13T05:48:37;4.8;72.4
53954;HTU21D;39862;54.856;26.318;2022-10-13T05:53:57;4.8;72.4
53954;HTU21D;39862;54.856;26.318;2022-10-13T05:59:11;4.8;72.4
53954;HTU21D;39862;54.856;26.318;2022-10-13T06:04:20;4.8;72.4
53954;HTU21D;39862;54.856;26.318;2022-10-13T06:08:44;4.8;72.4
53954;HTU21D;39862;54.856;26.318;2022-10-13T06:14:08;4.8;72.4
53954;HTU21D;39862;54.856;26.318;2022-10-13T06:18:45;4.8;72.4
53954;HTU21D;39862;54.856;26.318;2022-10-13T06:23:46;4.8;72.4
53954;HTU21D;39862;54.856;26.318;2022-10-13T06:28:58;4.8;72.4
53954;HTU21D;39862;54.856;26.318;2022-10-13T06:33:48;4.8;72.4
53954;HTU21D;39862;54.856;26.318;2022-10-13T06:39:08;4.8;72.4
53954;HTU21D;39862;54.856;26.318;2022-10-13T06:43:38;4.8;72.4
53954;HTU21D;39862;54.856;26.318;2022-10-13T06:48:36;4.8;72.4
53954;HTU21D;39862;54.856;26.318;2022-10-13T06:54:20;4.8;72.4
53954;HTU21D;39862;54.856;26.318;2022-10-13T06:59:22;4.8;72.4
53954;HTU21D;39862;54.856;26.318;2022-10-13T07:03:36;4.8;72.4
53954;HTU21D;39862;54.856;26.318;2022-10-13T07:08:58;4.8;72.4
53954;HTU21D;39862;54.856;26.318;2022-10-13T07:13:48;4.8;72.4
53954;HTU21D;39862;54.856;26.318;2022-10-13T07:19:20;4.8;72.4
53954;HTU21D;39862;54.856;26.318;2022-10-13T07:24:13;4.8;72.4
53954;HTU21D;39862;54.856;26.318;2022-10-13T07:29:08;4.8;72.4
53954;HTU21D;39862;54.856;26.318;2022-10-13T07:33:57;4.8;72.4
53954;HTU21D;39862;54.856;26.318;2022-10-13T07:39:08;4.8;72.4
53954;HTU21D;39862;54.856;26.318;2022-10-13T07:43:46;4.8;72.4
53954;HTU21D;39862;54.856;26.318;2022-10-13T07:49:12;4.8;72.4
53954;HTU21D;39862;54.856;26.318;2022-10-13T07:54:20;4.8;72.4
53954;HTU21D;39862;54.856;26.318;2022-10-13T07:59:12;4.8;72.4
53954;HTU21D;39862;54.856;26.318;2022-10-13T08:03:36;4.8;72.4
53954;HTU21D;39862;54.856;26.318;2022-10-13T08:09:22;4.8;72.4
53954;HTU21D;39862;54.856;26.318;2022-10-13T08:14:22;4.8;72.4
53954;HTU21D;39862;54.856;26.318;2022-10-13T08:18:56;4.8;72.4
53954;HTU21D;39862;54.856;26.318;2022-10-13T08:23:48;4.8;72.4
53954;HTU21D;39862;54.856;26.318;2022-10-13T08:29:22;4.8;72.4
53954;HTU21D;39862;54.856;26.318;2022-10-13T08:34:22;4.8;72.4
53954;HTU21D;39862;54.856;26.318;2022-10-13T08:38:56;4.8;72.4
53954;HTU21D;39862;54.856;26.318;2022-10-13T08:44:04;4.8;72.4
53954;HTU21D;39862;54.856;26.318;2022-10-13T08:48:46;4.8;72.4
53954;HTU21D;39862;54.856;26.318;2022-10-13T08:53:56;4.8;72.4
53954;HTU21D;39862;54.856;26.318;2022-10-13T08:58:58;4.8;72.4
53954;HTU21D;39862;54.856;26.318;2022-10-13T09:04:01;4.8;72.4
53954;HTU21D;39862;54.856;26.318;2022-10-13T09:09:03;4.8;72.4
53954;HTU21D;39862;54.856;26.318;2022-10-13T09:14:09;4.8;72.4
53954;HTU21D;39862;54.856;26.318;2022-10-13T09:19:09;4.8;72.4
53954;HTU21D;39862;54.856;26.318;2022-10-13T09:24:23;4.8;72.4
53954;HTU21D;39862;54.856;26.318;2022-10-13T09:28:38;4.8;72.4
53954;HTU21D;39862;54.856;26.318;2022-10-13T09:34:22;4.8;72.4
53954;HTU21D;39862;54.856;26.318;2022-10-13T09:38:36;4.8;72.4
53954;HTU21D;39862;54.856;26.318;2022-10-13T09:43:56;4.8;72.4
53954;HTU21D;39862;54.856;26.318;2022-10-13T09:49:24;4.8;72.4
53954;HTU21D;39862;54.856;26.318;2022-10-13T09:54:23;4.8;72.4
53954;HTU21D;39862;54.856;26.318;2022-10-13T09:59:00;4.8;72.4
53954;HTU21D;39862;54.856;26.318;2022-10-13T10:04:08;4.8;72.4
53954;HTU21D;39862;54.856;26.318;2022-10-13T10:09:05;4.8;72.4
53954;HTU21D;39862;54.856;26.318;2022-10-13T10:13:58;4.8;72.4
53954;HTU21D;39862;54.856;26.318;2022-10-13T10:19:12;4.8;72.4
53954;HTU21D;39862;54.856;26.318;2022-10-13T10:24:23;4.8;72.4
53954;HTU21D;39862;54.856;26.318;2022-10-13T10:28:38;4.8;72.4
53954;HTU21D;39862;54.856;26.318;2022-10-13T10:33:48;4.8;72.4
53954;HTU21D;39862;54.856;26.318;2022-10-13T10:39:22;4.8;72.4
53954;HTU21D;39862;54.856;26.318;2022-10-13T10:44:20;4.8;72.4
53954;HTU21D;39862;54.856;26.318;2022-10-13T10:49:22;4.8;72.4
53954;HTU21D;39862;54.856;26.318;2022-10-13T10:54:14;4.8;72.4
53954;HTU21D;39862;54.856;26.318;2022-10-13T10:59:25;4.8;72.4
53954;HTU21D;39862;54.856;26.318;2022-10-13T11:04:30;4.8;72.4
53954;HTU21D;39862;54.856;26.318;2022-10-13T11:08:56;4.8;72.4
53954;HTU21D;39862;54.856;26.318;2022-10-13T11:13:58;4.8;72.4
53954;HTU21D;39862;54.856;26.318;2022-10-13T11:19:26;4.8;72.4
53954;HTU21D;39862;54.856;26.318;2022-10-13T11:23:54;4.8;72.4
53954;HTU21D;39862;54.856;26.318;2022-10-13T11:28:44;4.8;72.4
53954;HTU21D;39862;54.856;26.318;2022-10-13T11:33:52;4.8;72.4
53954;HTU21D;39862;54.856;26.318;2022-10-13T11:39:29;4.8;72.4
53954;HTU21D;39862;54.856;26.318;2022-10-13T11:43:40;4.8;72.4
53954;HTU21D;39862;54.856;26.318;2022-10-13T11:48:57;4.8;72.4
53954;HTU21D;39862;54.856;26.318;2022-10-13T11:54:24;4.8;72.4
53954;HTU21D;39862;54.856;26.318;2022-10-13T11:59:23;4.8;72.4
53954;HTU21D;39862;54.856;26.318;2022-10-13T12:04:26;4.8;72.4
53954;HTU21D;39862;54.856;26.318;2022-10-13T12:08:36;4.8;72.4
53954;HTU21D;39862;54.856;26.318;2022-10-13T12:13:36;4.8;72.4
53954;HTU21D;39862;54.856;26.318;2022-10-13T12:19:21;4.8;72.4
53954;HTU21D;39862;54.856;26.318;2022-10-13T12:24:11;4.8;72.4
53954;HTU21D;39862;54.856;26.318;2022-10-13T12:28:59;4.8;72.4
53954;HTU21D;39862;54.856;26.318;2022-10-13T12:34:15;4.8;72.4
53954;HTU21D;39862;54.856;26.318;2022-10-13T12:39:07;4.8;72.4
53954;HTU21D;39862;54.856;26.318;2022-10-13T12:44:10;4.8;72.4
53954;HTU21D;39862;54.856;26.318;2022-10-13T12:49:13;4.8;72.4
53954;HTU21D;39862;54.856;26.318;2022-10-13T12:54:23;4.8;72.4
53954;HTU21D;39862;54.856;26.318;2022-10-13T12:58:46;4.8;72.4
53954;HTU21D;39862;54.856;26.318;2022-10-13T13:03:37;4.8;72.4
53954;HTU21D;39862;54.856;26.318;2022-10-13T13:09:19;4.8;72.4
53954;HTU21D;39862;54.856;26.318;2022-10-13T13:14:20;4.8;72.4
53954;HTU21D;39862;54.856;26.318;2022-10-13T13:19:20;4.8;72.4
53954;HTU21D;39862;54.856;26.318;2022-10-13T13:23:56;4.8;72.4
53954;HTU21D;39862;54.856;26.318;2022-10-13T13:29:20;4.8;72.4
53954;HTU21D;39862;54.856;26.318;2022-10-13T13:34:22;4.8;72.4
53954;HTU21D;39862;54.856;26.318;2022-10-13T13:38:46;4.8;72.4
53954;HTU21D;39862;54.856;26.318;2022-10-13T13:43:56;4.8;72.4
53954;HTU21D;39862;54.856;26.318;2022-10-13T13:48:48;4.8;72.4
53954;HTU21D;39862;54.856;26.318;2022-10-13T13:53:36;4.8;72.4
53954;HTU21D;39862;54.856;26.318;2022-10-13T13:58:58;4.8;72.4
53954;HTU21D;39862;54.856;26.318;2022-10-13T14:04:20;4.8;72.4
53954;HTU21D;39862;54.856;26.318;2022-10-13T14:09:20;4.8;72.4
53954;HTU21D;39862;54.856;26.318;2022-10-13T14:14:08;4.8;72.4
53954;HTU21D;39862;54.856;26.318;2022-10-13T14:18:48;4.8;72.4
53954;HTU21D;39862;54.856;26.318;2022-10-13T14:24:22;4.8;72.4
53954;HTU21D;39862;54.856;26.318;2022-10-13T14:29:08;4.8;72.4
53954;HTU21D;39862;54.856;26.318;2022-10-13T14:34:22;4.8;72.4
53954;HTU21D;39862;54.856;26.318;2022-10-13T14:38:36;4.8;72.4
53954;HTU21D;39862;54.856;26.318;2022-10-13T14:43:46;4.8;72.4
53954;HTU21D;39862;54.856;26.318;2022-10-13T14:49:20;4.8;72.4
53954;HTU21D;39862;54.856;26.318;2022-10-13T14:54:10;4.8;72.4
53954;HTU21D;39862;54.856;26.318;2022-10-13T14:58:36;4.8;72.4
53954;HTU21D;39862;54.856;26.318;2022-10-13T15:04:10;4.8;72.4
53954;HTU21D;39862;54.856;26.318;2022-10-13T15:09:08;4.8;72.4
53954;HTU21D;39862;54.856;26.318;2022-10-13T15:13:36;4.8;72.4
53954;HTU21D;39862;54.856;26.318;2022-10-13T15:19:10;4.8;72.4
53954;HTU21D;39862;54.856;26.318;2022-10-13T15:24:24;4.8;72.4
53954;HTU21D;39862;54.856;26.318;2022-10-13T15:28:49;4.8;72.4
53954;HTU21D;39862;54.856;26.318;2022-10-13T15:33:49;4.8;72.4
53954;HTU21D;39862;54.856;26.318;2022-10-13T15:39:22;4.8;72.4
53954;HTU21D;39862;54.856;26.318;2022-10-13T15:44:22;4.8;72.4
53954;HTU21D;39862;54.856;26.318;2022-10-13T15:49:22;4.8;72.4
53954;HTU21D;39862;54.856;26.318;2022-10-13T15:53:56;4.8;72.4
53954;HTU21D;39862;54.856;26.318;2022-10-13T15:59:22;4.8;72.4
53954;HTU21D;39862;54.856;26.318;2022-10-13T16:04:24;4.8;72.4
53954;HTU21D;39862;54.856;26.318;2022-10-13T16:08:46;4.8;72.4
53954;HTU21D;39862;54.856;26.318;2022-10-13T16:13:56;4.8;72.4
53954;HTU21D;39862;54.856;26.318;2022-10-13T16:18:46;4.8;72.4
53954;HTU21D;39862;54.856;26.318;2022-10-13T16:23:36;4.8;72.4
53954;HTU21D;39862;54.856;26.318;2022-10-13T16:28:58;4.8;72.4
53954;HTU21D;39862;54.856;26.318;2022-10-13T16:33:58;4.8;72.4
53954;HTU21D;39862;54.856;26.318;2022-10-13T16:39:20;4.8;72.4
53954;HTU21D;39862;54.856;26.318;2022-10-13T16:44:04;4.8;72.4
53954;HTU21D;39862;54.856;26.318;2022-10-13T16:48:56;4.8;72.4
53954;HTU21D;39862;54.856;26.318;2022-10-13T16:54:20;4.8;72.4
53954;HTU21D;39862;54.856;26.318;2022-10-13T16:58:59;4.8;72.4
53954;HTU21D;39862;54.856;26.318;2022-10-13T17:04:20;4.8;72.4
53954;HTU21D;39862;54.856;26.318;2022-10-13T17:08:36;4.8;72.4
53954;HTU21D;39862;54.856;26.318;2022-10-13T17:13:36;4.8;72.4
53954;HTU21D;39862;54.856;26.318;2022-10-13T17:19:20;4.8;72.4
53954;HTU21D;39862;54.856;26.318;2022-10-13T17:24:08;4.8;72.4
53954;HTU21D;39862;54.856;26.318;2022-10-13T17:28:58;4.8;72.4
53954;HTU21D;39862;54.856;26.318;2022-10-13T17:34:10;4.8;72.4
53954;HTU21D;39862;54.856;26.318;2022-10-13T17:39:08;4.8;72.4
53954;HTU21D;39862;54.856;26.318;2022-10-13T17:43:58;4.8;72.4
53954;HTU21D;39862;54.856;26.318;2022-10-13T17:49:12;4.8;72.4
53954;HTU21D;39862;54.856;26.318;2022-10-13T17:54:24;4.8;72.4
53954;HTU21D;39862;54.856;26.318;2022-10-13T17:58:36;4.8;72.4
53954;HTU21D;39862;54.856;26.318;2022-10-13T18:03:36;4.8;72.4
53954;HTU21D;39862;54.856;26.318;2022-10-13T18:09:20;4.8;72.4
53954;HTU21D;39862;54.856;26.318;2022-10-13T18:14:21;4.8;72.4
53954;HTU21D;39862;54.856;26.318;2022-10-13T18:19:20;4.8;72.4
53954;HTU21D;39862;54.856;26.318;2022-10-13T18:23:48;4.8;72.4
53954;HTU21D;39862;54.856;26.318;2022-10-13T18:29:18;4.8;72.4
53954;HTU21D;39862;54.856;26.318;2022-10-13T18:34:22;4.8;72.4
53954;HTU21D;39862;54.856;26.318;2022-10-13T18:38:59;4.8;72.4
53954;HTU21D;39862;54.856;26.318;2022-10-13T18:43:44;4.8;72.4
53954;HTU21D;39862;54.856;26.318;2022-10-13T18:48:58;4.8;72.4
53954;HTU21D;39862;54.856;26.318;2022-10-13T18:53:47;4.8;72.4
53954;HTU21D;39862;54.856;26.318;2022-10-13T18:59:10;4.8;72.4
53954;HTU21D;39862;54.856;26.318;2022-10-13T19:04:20;4.8;72.4
53954;HTU21D;39862;54.856;26.318;2022-10-13T19:09:18;4.8;72.4
53954;HTU21D;39862;54.856;26.318;2022-10-13T19:13:58;4.8;72.4
53954;HTU21D;39862;54.856;26.318;2022-10-13T19:18:49;4.8;72.4
53954;HTU21D;39862;54.856;26.318;2022-10-13T19:24:20;4.8;72.4
53954;HTU21D;39862;54.856;26.318;2022-10-13T19:29:11;4.8;72.4
53954;HTU21D;39862;54.856;26.318;2022-10-13T19:34:20;4.8;72.4
53954;HTU21D;39862;54.856;26.318;2022-10-13T19:38:56;4.8;72.4
53954;HTU21D;39862;54.856;26.318;2022-10-13T19:43:46;4.8;72.4
53954;HTU21D;39862;54.856;26.318;2022-10-13T19:49:19;4.8;72.4
53954;HTU21D;39862;54.856;26.318;2022-10-13T19:53:46;4.8;72.4
53954;HTU21D;39862;54.856;26.318;2022-10-13T19:58:36;4.8;72.4
53954;HTU21D;39862;54.856;26.318;2022-10-13T20:04:10;4.8;72.4
53954;HTU21D;39862;54.856;26.318;2022-10-13T20:09:09;4.8;72.4
53954;HTU21D;39862;54.856;26.318;2022-10-13T20:13:42;4.8;72.4
53954;HTU21D;39862;54.856;26.318;2022-10-13T20:19:11;4.8;72.4
53954;HTU21D;39862;54.856;26.318;2022-10-13T20:24:22;4.8;72.4
53954;HTU21D;39862;54.856;26.318;2022-10-13T20:28:38;4.8;72.4
53954;HTU21D;39862;54.856;26.318;2022-10-13T20:33:46;4.8;72.4
53954;HTU21D;39862;54.856;26.318;2022-10-13T20:39:22;4.8;72.4
53954;HTU21D;39862;54.856;26.318;2022-10-13T20:44:22;4.8;72.4
53954;HTU21D;39862;54.856;26.318;2022-10-13T20:49:20;4.8;72.4
53954;HTU21D;39862;54.856;26.318;2022-10-13T20:53:46;4.8;72.4
53954;HTU21D;39862;54.856;26.318;2022-10-13T20:59:00;4.8;72.4
53954;HTU21D;39862;54.856;26.318;2022-10-13T21:04:10;4.8;72.4
53954;HTU21D;39862;54.856;26.318;2022-10-13T21:09:20;7.8;66.2
53954;HTU21D;39862;54.856;26.318;2022-10-13T21:13:56;7.8;66.2
53954;HTU21D;39862;54.856;26.318;2022-10-13T21:18:47;7.7;66.2
53954;HTU21D;39862;54.856;26.318;2022-10-13T21:23:59;7.6;66.3
53954;HTU21D;39862;54.856;26.318;2022-10-13T21:29:00;7.6;66.4
53954;HTU21D;39862;54.856;26.318;2022-10-13T21:34:00;7.5;66.5
53954;HTU21D;39862;54.856;26.318;2022-10-13T21:38:49;7.5;66.6
53954;HTU21D;39862;54.856;26.318;2022-10-13T21:44:10;7.4;66.7
53954;HTU21D;39862;54.856;26.318;2022-10-13T21:49:22;7.4;67
53954;HTU21D;39862;54.856;26.318;2022-10-13T21:54:02;7.3;67.1
53954;HTU21D;39862;54.856;26.318;2022-10-13T21:59:22;7.3;67.3
53954;HTU21D;39862;54.856;26.318;2022-10-13T22:04:22;7.3;67.5
53954;HTU21D;39862;54.856;26.318;2022-10-13T22:08:45;7.3;67.7
53954;HTU21D;39862;54.856;26.318;2022-10-13T22:13:46;7.3;67.9
53954;HTU21D;39862;54.856;26.318;2022-10-13T22:19:10;7.3;68.1
53954;HTU21D;39862;54.856;26.318;2022-10-13T22:24:24;7.3;68.3
53954;HTU21D;39862;54.856;26.318;2022-10-13T22:29:13;7.3;68.5
53954;HTU21D;39862;54.856;26.318;2022-10-13T22:34:15;7.3;68.8
53954;HTU21D;39862;54.856;26.318;2022-10-13T22:39:14;7.3;69
53954;HTU21D;39862;54.856;26.318;2022-10-13T22:44:10;7.3;69.1
53954;HTU21D;39862;54.856;26.318;2022-10-13T22:48:59;7.4;69.2
53954;HTU21D;39862;54.856;26.318;2022-10-13T22:54:12;7.4;69.3
53954;HTU21D;39862;54.856;26.318;2022-10-13T22:58:59;7.4;69.3
53954;HTU21D;39862;54.856;26.318;2022-10-13T23:04:08;7.4;69.4
53954;HTU21D;39862;54.856;26.318;2022-10-13T23:08:36;7.5;69.6
53954;HTU21D;39862;54.856;26.318;2022-10-13T23:14:22;7.5;69.6
53954;HTU21D;39862;54.856;26.318;2022-10-13T23:19:02;7.5;69.6
